Main page
Satellite images 10-day forecastsClimateMarine weather Cyclones Lightning AirportsFAQ Newsletter About
Weather : Europe Africa North America South America Asia Australia-Oceania Others
Languages Contact

Frankfurt, Germany

Frankfurt Airport

latitude: 50-03N, longitude: 008-36E, elevation: 111 m


METAR: EDDF 031650Z 22005KT 190V260 CAVOK 35/13 Q1021 NOSIG
TAF: EDDF 031100Z 0312/0418 03005KT CAVOK TEMPO 0312/0316 VRB03KT BECMG 0404/0407 20006KT BECMG 0415/0418 36005KT

Time: 19:16 (17:16 UTC)

Current weather observation

The report was made 26 minutes ago, at 16:50 UTC
Wind 5 kt from the Southwest, varying between South and West
Temperature 35°C
Humidity 27%
Pressure 1021 hPa
Visibility 10 km or more
no clouds below 1500 m and no cumulonimbus

Change units

Forecast

The report was made 6 hours and 16 minutes ago, at 11:00 UTC
Forecast valid from 03 at 12 UTC to 04 at 18 UTC
Wind 5 kt from the North/Northeast
Visibility 10 km or more
no clouds below 1500 m and no cumulonimbus
Temporary
from 03 at 12 UTC to 03 at 16 UTC
Wind 3 kt from variable directions
Becoming
from 04 at 04 UTC to 04 at 07 UTC
Wind 6 kt from the South/Southwest
Becoming
from 04 at 15 UTC to 04 at 18 UTC
Wind 5 kt from the North
The information on this site is subject to a disclaimer
Weather : Europe Africa North America South America Asia Australia-Oceania Others
Satellite images 10-day forecastsClimateMarine weather Cyclones Lightning AirportsFAQ Languages Contact Newsletter About